createdAt,value
2022-11-05T00:02:25.418Z,98182.53
2022-11-05T00:07:50.769Z,98194.22
2022-11-05T00:13:21.234Z,98204.59
2022-11-05T00:18:24.274Z,98199.44
2022-11-05T00:23:46.545Z,98204.75
2022-11-05T00:28:49.262Z,98203.06
2022-11-05T00:33:52.020Z,98216.44
2022-11-05T00:38:56.088Z,98224.41
2022-11-05T00:44:16.560Z,98228.75
2022-11-05T00:49:31.178Z,98230.81
2022-11-05T00:54:35.242Z,98241.94
2022-11-05T00:59:37.950Z,98251.84
2022-11-05T01:04:40.657Z,98259.81
2022-11-05T01:09:44.719Z,98265.25
2022-11-05T01:14:47.488Z,98266.09
2022-11-05T01:19:51.233Z,98279.81
2022-11-05T01:24:55.408Z,98281.53
2022-11-05T01:29:58.138Z,98287.69
2022-11-05T01:35:00.912Z,98289.84
2022-11-05T01:40:05.964Z,98294.44
2022-11-05T01:45:14.453Z,98305.41
2022-11-05T01:50:28.113Z,98301.31
2022-11-05T01:55:36.474Z,98302.13
2022-11-05T02:00:41.073Z,98302.50
2022-11-05T02:05:44.701Z,98296.47
2022-11-05T02:10:49.544Z,98311.78
2022-11-05T02:16:02.506Z,98310.09
2022-11-05T02:21:27.367Z,98309.50
2022-11-05T02:27:01.013Z,98315.16
2022-11-05T02:32:09.709Z,98317.19
2022-11-05T02:37:18.836Z,98314.66
2022-11-05T02:42:31.639Z,98313.44
2022-11-05T02:47:43.856Z,98328.03
2022-11-05T02:52:54.629Z,98318.59
2022-11-05T02:57:59.698Z,98328.13
2022-11-05T03:03:05.816Z,98325.94
2022-11-05T03:08:16.796Z,98332.34
2022-11-05T03:13:27.259Z,98341.13
2022-11-05T03:18:40.798Z,98348.97
2022-11-05T03:23:48.049Z,98350.66
2022-11-05T03:28:56.818Z,98367.53
2022-11-05T03:34:03.949Z,98362.09
2022-11-05T03:39:09.766Z,98373.44
2022-11-05T03:44:16.693Z,98373.22
2022-11-05T03:49:26.523Z,98379.25
2022-11-05T03:54:29.959Z,98379.38
2022-11-05T03:59:39.238Z,98367.56
2022-11-05T04:04:43.603Z,98378.91
2022-11-05T04:10:03.871Z,98383.16
2022-11-05T04:15:07.868Z,98384.72
2022-11-05T04:25:57.071Z,98406.56
2022-11-05T04:30:59.905Z,98411.88
2022-11-05T04:36:04.016Z,98419.94
2022-11-05T04:41:14.593Z,98420.78
2022-11-05T04:46:17.557Z,98427.06
2022-11-05T04:51:22.842Z,98429.72
2022-11-05T04:56:26.540Z,98433.19
2022-11-05T05:01:29.515Z,98432.38
2022-11-05T05:06:33.648Z,98434.28
2022-11-05T05:11:36.591Z,98431.75
2022-11-05T05:16:39.683Z,98438.88
2022-11-05T05:21:43.746Z,98449.25
2022-11-05T05:26:49.077Z,98449.84
2022-11-05T05:31:51.896Z,98456.25
2022-11-05T05:36:55.979Z,98449.84
2022-11-05T05:41:58.685Z,98455.06
2022-11-05T05:47:01.465Z,98462.28
2022-11-05T05:52:06.149Z,98474.47
2022-11-05T05:57:08.869Z,98485.09
2022-11-05T06:02:12.567Z,98490.38
2022-11-05T06:07:16.782Z,98495.91
2022-11-05T06:12:19.589Z,98494.13
2022-11-05T06:17:22.689Z,98495.91
2022-11-05T06:22:26.775Z,98497.25
2022-11-05T06:27:29.706Z,98507.13
2022-11-05T06:32:32.768Z,98501.06
2022-11-05T06:37:36.915Z,98502.97
2022-11-05T06:42:42.326Z,98516.78
2022-11-05T06:47:45.028Z,98524.09
2022-11-05T06:52:55.635Z,98534.38
2022-11-05T06:57:58.691Z,98541.03
2022-11-05T07:03:05.196Z,98544.81
2022-11-05T07:08:09.350Z,98557.09
2022-11-05T07:13:13.024Z,98560.75
2022-11-05T07:18:16.593Z,98566.13
2022-11-05T07:23:20.749Z,98570.25
2022-11-05T07:28:23.636Z,98568.69
2022-11-05T07:33:26.345Z,98589.22
2022-11-05T07:38:30.634Z,98591.34
2022-11-05T07:43:33.363Z,98601.28
2022-11-05T07:48:37.284Z,98603.13
2022-11-05T07:53:45.294Z,98621.84
2022-11-05T07:58:48.415Z,98624.22
2022-11-05T08:03:51.163Z,98630.25
2022-11-05T08:08:55.236Z,98633.63
2022-11-05T08:13:57.967Z,98635.91
2022-11-05T08:19:00.756Z,98636.31
2022-11-05T08:24:05.264Z,98624.50
2022-11-05T08:29:07.998Z,98625.91
2022-11-05T08:34:10.693Z,98622.28
2022-11-05T08:39:17.082Z,98632.44
2022-11-05T08:44:19.971Z,98632.94
2022-11-05T08:49:22.856Z,98633.25
2022-11-05T08:54:27.698Z,98652.00
2022-11-05T08:59:31.385Z,98646.13
2022-11-05T09:04:34.153Z,98644.25
2022-11-05T09:09:38.265Z,98651.41
2022-11-05T09:14:41.087Z,98653.22
2022-11-05T09:19:43.956Z,98654.94
2022-11-05T09:24:48.113Z,98659.91
2022-11-05T09:29:50.824Z,98670.06
2022-11-05T09:34:54.500Z,98671.22
2022-11-05T09:39:58.918Z,98679.78
2022-11-05T09:45:04.539Z,98688.34
2022-11-05T09:50:10.624Z,98688.00
2022-11-05T09:55:24.561Z,98698.09
2022-11-05T10:00:27.903Z,98684.53
2022-11-05T10:05:33.801Z,98696.00
2022-11-05T10:10:43.099Z,98699.25
2022-11-05T10:15:54.988Z,98705.06
2022-11-05T10:20:58.608Z,98702.88
2022-11-05T10:26:05.557Z,98708.94
2022-11-05T10:31:11.310Z,98706.88
2022-11-05T10:36:29.693Z,98704.25
2022-11-05T10:41:45.663Z,98693.28
2022-11-05T10:46:59.403Z,98707.09
2022-11-05T10:52:13.126Z,98698.50
2022-11-05T10:57:31.872Z,98695.41
2022-11-05T11:02:36.753Z,98707.63
2022-11-05T11:07:39.623Z,98703.50
2022-11-05T11:12:44.379Z,98708.75
2022-11-05T11:17:47.662Z,98709.19
2022-11-05T11:23:05.306Z,98710.59
2022-11-05T11:28:18.943Z,98702.00
2022-11-05T11:33:28.205Z,98700.84
2022-11-05T11:38:32.516Z,98702.78
2022-11-05T11:43:39.929Z,98703.22
2022-11-05T11:48:43.292Z,98707.34
2022-11-05T11:53:49.219Z,98709.13
2022-11-05T11:58:54.911Z,98705.84
2022-11-05T12:04:04.719Z,98705.84
2022-11-05T12:09:18.313Z,98703.84
2022-11-05T12:14:40.210Z,98699.13
2022-11-05T12:20:12.446Z,98708.47
2022-11-05T12:25:22.636Z,98712.34
2022-11-05T12:30:27.618Z,98707.47
2022-11-05T12:35:57.795Z,98695.13
2022-11-05T12:41:20.919Z,98689.91
2022-11-05T12:46:35.217Z,98696.44
2022-11-05T12:51:50.576Z,98696.91
2022-11-05T12:56:57.632Z,98704.00
2022-11-05T13:02:08.104Z,98702.03
2022-11-05T13:07:15.106Z,98702.63
2022-11-05T13:12:22.762Z,98698.78
2022-11-05T13:17:30.562Z,98705.63
2022-11-05T13:22:40.469Z,98701.16
2022-11-05T13:27:54.636Z,98701.75
2022-11-05T13:33:02.467Z,98696.47
2022-11-05T13:38:27.324Z,98693.91
2022-11-05T13:43:57.356Z,98698.28
2022-11-05T13:49:17.554Z,98696.28
2022-11-05T13:55:00.166Z,98702.53
2022-11-05T14:00:11.387Z,98705.84
2022-11-05T14:05:26.375Z,98694.81
2022-11-05T14:10:35.928Z,98687.84
2022-11-05T14:15:38.798Z,98687.78
2022-11-05T14:20:59.496Z,98693.97
2022-11-05T14:26:15.984Z,98697.13
2022-11-05T14:32:09.906Z,98694.44
2022-11-05T14:37:23.153Z,98693.94
2022-11-05T14:42:28.867Z,98681.78
2022-11-05T14:47:34.435Z,98669.31
2022-11-05T14:52:41.392Z,98664.59
2022-11-05T14:58:06.438Z,98673.84
2022-11-05T15:03:32.580Z,98673.94
2022-11-05T15:08:56.257Z,98675.41
2022-11-05T15:14:05.650Z,98672.38
2022-11-05T15:19:18.753Z,98672.25
2022-11-05T15:24:23.311Z,98676.84
2022-11-05T15:29:30.335Z,98672.44
2022-11-05T15:34:35.558Z,98682.34
2022-11-05T15:39:43.039Z,98679.66
2022-11-05T15:44:47.273Z,98662.69
2022-11-05T15:49:52.927Z,98656.84
2022-11-05T15:55:18.576Z,98660.66
2022-11-05T16:00:24.165Z,98665.59
2022-11-05T16:05:29.290Z,98674.34
2022-11-05T16:10:35.547Z,98685.03
2022-11-05T16:15:38.301Z,98684.59
2022-11-05T16:20:41.181Z,98684.53
2022-11-05T16:25:47.166Z,98709.94
2022-11-05T16:30:55.338Z,98710.16
2022-11-05T16:35:58.336Z,98717.75
2022-11-05T16:41:02.896Z,98712.84
2022-11-05T16:46:05.955Z,98699.69
2022-11-05T16:51:10.297Z,98701.69
2022-11-05T16:56:18.162Z,98701.69
2022-11-05T17:01:23.659Z,98709.88
2022-11-05T17:06:26.426Z,98705.97
2022-11-05T17:11:30.688Z,98719.88
2022-11-05T17:16:33.451Z,98728.91
2022-11-05T17:21:36.623Z,98740.56
2022-11-05T17:26:40.944Z,98732.72
2022-11-05T17:31:43.781Z,98737.38
2022-11-05T17:36:49.136Z,98719.16
2022-11-05T17:41:55.975Z,98723.72
2022-11-05T17:46:58.712Z,98720.72
2022-11-05T17:52:01.617Z,98738.78
2022-11-05T17:57:07.173Z,98744.72
2022-11-05T18:02:12.001Z,98745.97
2022-11-05T18:07:15.151Z,98750.53
2022-11-05T18:12:19.336Z,98763.06
2022-11-05T18:17:22.357Z,98760.53
2022-11-05T18:22:26.590Z,98765.91
2022-11-05T18:27:30.763Z,98750.97
2022-11-05T18:32:34.013Z,98750.97
2022-11-05T18:37:38.714Z,98757.88
2022-11-05T18:42:43.049Z,98750.88
2022-11-05T18:47:45.753Z,98743.66
2022-11-05T18:52:48.458Z,98738.56
2022-11-05T18:57:53.462Z,98740.66
2022-11-05T19:02:56.652Z,98736.53
2022-11-05T19:07:59.733Z,98738.34
2022-11-05T19:13:03.972Z,98733.34
2022-11-05T19:18:06.990Z,98730.25
2022-11-05T19:23:10.093Z,98729.72
2022-11-05T19:28:14.490Z,98731.72
2022-11-05T19:33:17.711Z,98737.88
2022-11-05T19:38:20.409Z,98736.16
2022-11-05T19:43:24.622Z,98731.81
2022-11-05T19:48:29.217Z,98738.00
2022-11-05T19:53:31.938Z,98734.59
2022-11-05T19:58:36.368Z,98739.56
2022-11-05T20:03:40.326Z,98730.03
2022-11-05T20:09:07.026Z,98739.25
2022-11-05T20:14:10.907Z,98733.50
2022-11-05T20:19:16.583Z,98739.75
2022-11-05T20:24:25.149Z,98728.41
2022-11-05T20:29:35.231Z,98740.16
2022-11-05T20:34:39.164Z,98732.88
2022-11-05T20:39:42.168Z,98728.41
2022-11-05T20:44:46.233Z,98727.66
2022-11-05T20:49:48.981Z,98719.81
2022-11-05T20:54:51.900Z,98728.59
2022-11-05T20:59:56.086Z,98733.06
2022-11-05T21:04:58.840Z,98732.31
2022-11-05T21:10:02.305Z,98723.81
2022-11-05T21:15:08.478Z,98746.69
2022-11-05T21:20:11.641Z,98747.75
2022-11-05T21:25:17.861Z,98753.59
2022-11-05T21:30:22.426Z,98762.84
2022-11-05T21:35:25.310Z,98763.72
2022-11-05T21:40:34.540Z,98757.53
2022-11-05T21:45:40.737Z,98747.69
2022-11-05T21:50:57.615Z,98756.50
2022-11-05T21:56:26.163Z,98759.34
2022-11-05T22:01:31.396Z,98752.66
2022-11-05T22:06:34.609Z,98766.41
2022-11-05T22:11:37.815Z,98763.19
2022-11-05T22:16:41.944Z,98753.69
2022-11-05T22:21:45.700Z,98739.22
2022-11-05T22:26:48.617Z,98749.16
2022-11-05T22:31:52.830Z,98759.34
2022-11-05T22:36:55.856Z,98756.94
2022-11-05T22:42:02.034Z,98751.38
2022-11-05T22:47:09.774Z,98755.22
2022-11-05T22:52:13.366Z,98746.75
2022-11-05T22:57:16.395Z,98745.41
2022-11-05T23:02:20.695Z,98741.69
2022-11-05T23:07:41.306Z,98735.44
2022-11-05T23:12:44.605Z,98719.44
2022-11-05T23:18:06.245Z,98717.09
2022-11-05T23:23:37.349Z,98698.81
2022-11-05T23:28:40.062Z,98702.03
2022-11-05T23:33:46.647Z,98709.78
2022-11-05T23:38:49.393Z,98701.41
2022-11-05T23:44:09.678Z,98673.50
2022-11-05T23:49:14.071Z,98685.94
2022-11-05T23:54:16.841Z,98675.00
2022-11-05T23:59:19.553Z,98670.22
